createdAt,value
2019-01-23T00:00:55.981Z,74.00
2019-01-23T00:03:22.875Z,73.90
2019-01-23T00:05:50.006Z,74.20
2019-01-23T00:08:17.014Z,74.40
2019-01-23T00:10:43.961Z,74.40
2019-01-23T00:13:10.910Z,74.10
2019-01-23T00:15:37.940Z,74.50
2019-01-23T00:18:04.848Z,74.30
2019-01-23T00:20:31.801Z,74.80
2019-01-23T00:22:58.928Z,74.50
2019-01-23T00:25:25.941Z,74.70
2019-01-23T00:27:52.919Z,74.30
2019-01-23T00:30:19.901Z,74.50
2019-01-23T00:32:46.851Z,74.60
2019-01-23T00:35:13.799Z,74.30
2019-01-23T00:37:40.794Z,74.80
2019-01-23T00:40:08.244Z,74.80
2019-01-23T00:42:35.336Z,75.10
2019-01-23T00:45:02.996Z,75.20
2019-01-23T00:47:29.961Z,74.70
2019-01-23T00:49:56.989Z,74.70
2019-01-23T00:52:24.036Z,75.30
2019-01-23T00:54:51.008Z,75.30
2019-01-23T00:57:17.973Z,75.20
2019-01-23T00:59:44.940Z,75.30
2019-01-23T01:02:12.018Z,75.30
2019-01-23T01:04:39.096Z,75.60
2019-01-23T01:07:06.000Z,75.40
2019-01-23T01:09:33.063Z,75.20
2019-01-23T01:12:00.066Z,74.70
2019-01-23T01:14:27.164Z,75.60
2019-01-23T01:16:54.084Z,75.50
2019-01-23T01:19:21.022Z,76.00
2019-01-23T01:21:48.028Z,75.80
2019-01-23T01:24:14.984Z,76.00
2019-01-23T01:26:41.997Z,76.00
2019-01-23T01:29:08.986Z,75.60
2019-01-23T01:31:35.954Z,75.00
2019-01-23T01:34:03.049Z,75.40
2019-01-23T01:36:29.969Z,75.40
2019-01-23T01:38:57.241Z,75.60
2019-01-23T01:41:24.234Z,75.20
2019-01-23T01:43:51.257Z,75.20
2019-01-23T01:46:18.454Z,75.20
2019-01-23T01:48:45.483Z,75.90
2019-01-23T01:51:12.523Z,75.60
2019-01-23T01:53:39.495Z,75.60
2019-01-23T01:56:06.629Z,75.40
2019-01-23T01:58:33.738Z,75.60
2019-01-23T02:01:00.848Z,75.70
2019-01-23T02:03:30.399Z,75.40
2019-01-23T02:05:57.506Z,75.30
2019-01-23T02:08:24.664Z,75.20
2019-01-23T02:10:51.701Z,75.50
2019-01-23T02:13:18.781Z,76.10
2019-01-23T02:15:45.809Z,75.90
2019-01-23T02:18:12.858Z,76.00
2019-01-23T02:20:39.842Z,76.30
2019-01-23T02:23:06.746Z,76.60
2019-01-23T02:25:33.896Z,76.40
2019-01-23T02:28:00.933Z,76.00
2019-01-23T02:30:27.991Z,75.50
2019-01-23T02:32:55.076Z,76.60
2019-01-23T02:35:22.060Z,76.30
2019-01-23T02:37:49.028Z,75.80
2019-01-23T02:40:18.095Z,75.60
2019-01-23T02:42:45.447Z,75.10
2019-01-23T02:45:12.867Z,75.50
2019-01-23T02:47:40.023Z,75.80
2019-01-23T02:50:07.420Z,75.50
2019-01-23T02:52:34.737Z,76.00
2019-01-23T02:55:02.202Z,75.80
2019-01-23T02:57:29.281Z,75.40
2019-01-23T02:59:56.401Z,75.60
2019-01-23T03:02:23.492Z,75.10
2019-01-23T03:04:50.476Z,75.80
2019-01-23T03:07:17.506Z,75.50
2019-01-23T03:09:44.549Z,75.20
2019-01-23T03:12:11.697Z,75.60
2019-01-23T03:14:38.770Z,75.60
2019-01-23T03:17:05.900Z,75.60
2019-01-23T03:19:33.312Z,75.60
2019-01-23T03:22:00.362Z,75.00
2019-01-23T03:24:27.400Z,74.80
2019-01-23T03:26:54.532Z,74.40
2019-01-23T03:29:24.680Z,74.40
2019-01-23T03:31:50.294Z,74.30
2019-01-23T03:34:17.318Z,74.60
2019-01-23T03:36:44.419Z,74.60
2019-01-23T03:39:11.397Z,74.20
2019-01-23T03:41:38.332Z,74.80
2019-01-23T03:44:05.351Z,74.80
2019-01-23T03:46:32.523Z,75.00
2019-01-23T03:48:59.560Z,75.00
2019-01-23T03:51:26.625Z,74.50
2019-01-23T03:53:53.656Z,74.50
2019-01-23T03:56:20.566Z,74.40
2019-01-23T03:58:47.672Z,74.70
2019-01-23T04:01:14.770Z,74.70
2019-01-23T04:03:41.792Z,74.70
2019-01-23T04:06:08.902Z,74.20
2019-01-23T04:08:35.966Z,74.30
2019-01-23T04:11:03.260Z,74.50
2019-01-23T04:13:30.739Z,73.90
2019-01-23T04:15:57.781Z,73.40
2019-01-23T04:18:24.751Z,73.30
2019-01-23T04:20:51.791Z,73.30
2019-01-23T04:23:18.846Z,73.30
2019-01-23T04:25:47.510Z,73.30
2019-01-23T04:28:14.497Z,73.30
2019-01-23T04:30:41.603Z,72.90
2019-01-23T04:33:08.657Z,72.70
2019-01-23T04:35:35.598Z,72.90
2019-01-23T04:38:02.877Z,72.70
2019-01-23T04:40:29.994Z,72.90
2019-01-23T04:42:57.045Z,72.80
2019-01-23T04:45:24.186Z,72.60
2019-01-23T04:47:51.222Z,72.80
2019-01-23T04:50:18.292Z,72.10
2019-01-23T04:52:56.207Z,72.00
2019-01-23T04:55:23.432Z,71.80
2019-01-23T04:57:50.606Z,71.70
2019-01-23T05:00:19.584Z,71.80
2019-01-23T05:02:46.583Z,71.50
2019-01-23T05:05:13.715Z,71.90
2019-01-23T05:07:40.733Z,71.80
2019-01-23T05:10:07.810Z,71.30
2019-01-23T05:12:34.834Z,71.50
2019-01-23T05:15:02.113Z,71.70
2019-01-23T05:17:29.023Z,71.50
2019-01-23T05:19:56.034Z,71.40
2019-01-23T05:22:23.018Z,71.10
2019-01-23T05:24:50.158Z,71.30
2019-01-23T05:27:17.257Z,70.90
2019-01-23T05:29:44.318Z,71.20
2019-01-23T05:32:11.478Z,70.70
2019-01-23T05:34:38.528Z,70.90
2019-01-23T05:37:05.605Z,71.40
2019-01-23T05:39:32.635Z,71.10
2019-01-23T05:41:59.781Z,71.30
2019-01-23T05:44:26.879Z,72.10
2019-01-23T05:46:53.957Z,71.00
2019-01-23T05:49:21.072Z,71.00
2019-01-23T05:51:48.138Z,70.90
2019-01-23T05:54:15.210Z,70.50
2019-01-23T05:56:42.205Z,70.40
2019-01-23T05:59:09.245Z,71.40
2019-01-23T06:01:36.261Z,70.40
2019-01-23T06:04:03.277Z,70.30
2019-01-23T06:06:30.321Z,70.50
2019-01-23T06:08:57.463Z,70.20
2019-01-23T06:11:24.652Z,71.00
2019-01-23T06:13:51.773Z,70.40
2019-01-23T06:16:18.747Z,70.40
2019-01-23T06:18:45.668Z,69.70
2019-01-23T06:21:12.673Z,70.10
2019-01-23T06:23:39.924Z,69.50
2019-01-23T06:26:07.020Z,69.60
2019-01-23T06:28:34.082Z,69.80
2019-01-23T06:31:01.194Z,69.70
2019-01-23T06:33:28.381Z,70.20
2019-01-23T06:35:55.428Z,69.70
2019-01-23T06:38:22.612Z,69.70
2019-01-23T06:40:51.126Z,69.60
2019-01-23T06:43:18.100Z,69.10
2019-01-23T06:45:45.154Z,68.60
2019-01-23T06:48:12.208Z,68.60
2019-01-23T06:50:39.165Z,68.60
2019-01-23T06:53:06.165Z,69.10
2019-01-23T06:55:33.450Z,68.60
2019-01-23T06:58:00.615Z,68.50
2019-01-23T07:00:27.740Z,68.50
2019-01-23T07:02:54.789Z,68.40
2019-01-23T07:05:22.628Z,68.60
2019-01-23T07:07:49.812Z,68.70
2019-01-23T07:10:19.585Z,68.50
2019-01-23T07:12:46.630Z,68.70
2019-01-23T07:15:13.742Z,68.60
2019-01-23T07:17:40.768Z,68.50
2019-01-23T07:20:11.189Z,68.60
2019-01-23T07:22:38.305Z,68.60
2019-01-23T07:25:05.853Z,68.70
2019-01-23T07:27:32.909Z,68.70
2019-01-23T07:29:59.806Z,68.80
2019-01-23T07:32:26.976Z,68.70
2019-01-23T07:34:54.060Z,68.70
2019-01-23T07:37:21.206Z,68.60
2019-01-23T07:39:48.668Z,68.60
2019-01-23T07:42:35.217Z,68.60
2019-01-23T07:45:02.762Z,68.60
2019-01-23T07:47:29.731Z,68.80
2019-01-23T07:49:56.850Z,68.70
2019-01-23T07:52:23.859Z,69.40
2019-01-23T07:54:50.900Z,68.70
2019-01-23T07:57:17.797Z,69.40
2019-01-23T07:59:44.749Z,69.80
2019-01-23T08:02:11.713Z,68.90
2019-01-23T08:04:38.715Z,68.90
2019-01-23T08:07:05.628Z,68.50
2019-01-23T08:09:32.597Z,68.80
2019-01-23T08:11:59.501Z,68.90
2019-01-23T08:14:26.517Z,68.30
2019-01-23T08:16:53.565Z,68.30
2019-01-23T08:19:20.528Z,67.60
2019-01-23T08:21:47.578Z,68.00
2019-01-23T08:24:14.481Z,67.80
2019-01-23T08:26:41.638Z,67.00
2019-01-23T08:29:08.596Z,66.70
2019-01-23T08:31:35.773Z,67.20
2019-01-23T08:34:02.676Z,67.20
2019-01-23T08:36:29.618Z,66.70
2019-01-23T08:38:56.502Z,67.00
2019-01-23T08:41:23.466Z,66.70
2019-01-23T08:43:50.361Z,67.00
2019-01-23T08:46:17.437Z,67.40
2019-01-23T08:48:44.389Z,67.20
2019-01-23T08:51:11.369Z,66.90
2019-01-23T08:53:38.281Z,66.60
2019-01-23T08:56:05.240Z,66.40
2019-01-23T08:58:32.249Z,67.00
2019-01-23T09:00:59.337Z,66.90
2019-01-23T09:03:26.220Z,65.30
2019-01-23T09:05:53.113Z,65.10
2019-01-23T09:08:20.033Z,66.20
2019-01-23T09:10:46.939Z,64.90
2019-01-23T09:13:14.017Z,65.30
2019-01-23T09:15:41.029Z,65.20
2019-01-23T09:18:08.068Z,64.90
2019-01-23T09:20:35.112Z,64.70
2019-01-23T09:23:02.063Z,64.50
2019-01-23T09:25:29.064Z,64.20
2019-01-23T09:27:56.121Z,64.10
2019-01-23T09:30:52.533Z,64.30
2019-01-23T09:33:52.609Z,64.80
2019-01-23T09:37:03.953Z,64.90
2019-01-23T09:40:03.742Z,64.30
2019-01-23T09:43:20.943Z,64.00
2019-01-23T09:46:17.073Z,64.00
2019-01-23T09:49:19.256Z,64.00
2019-01-23T09:52:35.987Z,64.00
2019-01-23T09:55:04.830Z,64.10
2019-01-23T09:57:34.585Z,64.10
2019-01-23T10:00:01.687Z,64.10
2019-01-23T10:02:28.696Z,64.10
2019-01-23T10:04:55.729Z,64.20
2019-01-23T10:07:22.636Z,63.90
2019-01-23T10:09:49.569Z,63.80
2019-01-23T10:12:16.666Z,64.00
2019-01-23T10:14:43.706Z,63.30
2019-01-23T10:17:10.752Z,63.00
2019-01-23T10:19:37.688Z,63.80
2019-01-23T10:22:04.587Z,63.20
2019-01-23T10:24:35.869Z,62.90
2019-01-23T10:27:00.509Z,63.40
2019-01-23T10:29:27.443Z,63.00
2019-01-23T10:31:54.405Z,63.00
2019-01-23T10:34:21.407Z,63.70
2019-01-23T10:36:48.420Z,63.30
2019-01-23T10:39:15.347Z,63.60
2019-01-23T10:41:42.243Z,63.50
2019-01-23T10:44:09.337Z,63.60
2019-01-23T10:46:36.333Z,63.50
2019-01-23T10:49:03.431Z,63.30
2019-01-23T10:51:30.376Z,63.60
2019-01-23T10:53:57.254Z,63.30
2019-01-23T10:56:24.217Z,63.80
2019-01-23T10:58:51.094Z,63.30
2019-01-23T11:01:20.558Z,63.40
2019-01-23T11:03:47.434Z,63.90
2019-01-23T11:06:14.389Z,63.90
2019-01-23T11:08:41.593Z,63.70
2019-01-23T11:11:08.605Z,62.80
2019-01-23T11:13:35.570Z,63.70
2019-01-23T11:16:02.664Z,63.30
2019-01-23T11:18:29.541Z,63.70
2019-01-23T11:20:56.517Z,64.30
2019-01-23T11:23:23.737Z,64.20
2019-01-23T11:25:50.743Z,64.40
2019-01-23T11:28:17.724Z,64.10
2019-01-23T11:30:44.699Z,64.20
2019-01-23T11:33:11.849Z,64.00
2019-01-23T11:35:38.966Z,64.40
2019-01-23T11:38:06.082Z,64.40
2019-01-23T11:40:32.981Z,64.50
2019-01-23T11:42:59.976Z,64.30
2019-01-23T11:45:27.253Z,64.00
2019-01-23T11:47:54.321Z,63.80
2019-01-23T11:50:23.077Z,63.80
2019-01-23T11:52:50.561Z,63.60
2019-01-23T11:55:17.682Z,64.00
2019-01-23T11:57:44.726Z,63.60
2019-01-23T12:00:14.613Z,64.20
2019-01-23T12:02:41.691Z,64.00
2019-01-23T12:05:10.696Z,64.10
2019-01-23T12:07:37.665Z,64.20
2019-01-23T12:10:05.490Z,64.30
2019-01-23T12:12:32.530Z,64.70
2019-01-23T12:14:59.480Z,64.70
2019-01-23T12:17:26.804Z,64.80
2019-01-23T12:19:53.946Z,64.60
2019-01-23T12:22:20.933Z,64.40
2019-01-23T12:24:48.057Z,64.40
2019-01-23T12:27:15.180Z,65.00
2019-01-23T12:29:42.070Z,64.40
2019-01-23T12:32:09.032Z,64.70
2019-01-23T12:34:35.912Z,64.60
2019-01-23T12:37:02.882Z,65.00
2019-01-23T12:39:29.760Z,65.00
2019-01-23T12:41:56.721Z,65.10
2019-01-23T12:44:23.657Z,65.20
2019-01-23T12:46:50.589Z,65.10
2019-01-23T12:49:17.532Z,64.60
2019-01-23T12:51:44.511Z,64.60
2019-01-23T12:54:11.706Z,64.60
2019-01-23T12:56:38.721Z,64.40
2019-01-23T12:59:05.816Z,64.80
2019-01-23T13:01:32.825Z,64.90
2019-01-23T13:03:59.763Z,65.10
2019-01-23T13:06:26.821Z,65.20
2019-01-23T13:08:53.812Z,65.40
2019-01-23T13:11:21.001Z,65.30
2019-01-23T13:13:48.124Z,65.40
2019-01-23T13:16:15.142Z,65.10
2019-01-23T13:18:42.150Z,65.30
2019-01-23T13:21:09.206Z,65.00
2019-01-23T13:23:36.233Z,65.20
2019-01-23T13:26:03.929Z,65.40
2019-01-23T13:28:30.912Z,65.20
2019-01-23T13:30:57.871Z,66.30
2019-01-23T13:33:24.793Z,65.50
2019-01-23T13:35:51.821Z,65.70
2019-01-23T13:38:19.433Z,65.30
2019-01-23T13:40:46.462Z,65.10
2019-01-23T13:43:13.461Z,65.00
2019-01-23T13:45:41.782Z,65.50
2019-01-23T13:48:09.364Z,65.80
2019-01-23T13:50:36.389Z,65.80
2019-01-23T13:53:03.628Z,66.00
2019-01-23T13:55:30.799Z,66.50
2019-01-23T13:57:57.893Z,66.60
2019-01-23T14:00:27.651Z,66.70
2019-01-23T14:02:54.749Z,66.80
2019-01-23T14:05:21.864Z,66.50
2019-01-23T14:07:48.940Z,66.30
2019-01-23T14:10:15.969Z,65.90
2019-01-23T14:12:43.138Z,66.20
2019-01-23T14:15:17.069Z,66.20
2019-01-23T14:17:44.215Z,66.10
2019-01-23T14:20:12.023Z,66.10
2019-01-23T14:22:39.047Z,65.80
2019-01-23T14:25:07.314Z,66.00
2019-01-23T14:27:34.301Z,65.90
2019-01-23T14:30:01.276Z,66.00
2019-01-23T14:32:28.461Z,66.10
2019-01-23T14:34:55.448Z,66.30
2019-01-23T14:37:22.398Z,66.70
2019-01-23T14:39:49.503Z,66.40
2019-01-23T14:42:16.501Z,66.20
2019-01-23T14:44:43.629Z,66.60
2019-01-23T14:47:10.677Z,65.90
2019-01-23T14:49:37.778Z,66.00
2019-01-23T14:52:05.563Z,65.50
2019-01-23T14:54:32.647Z,66.40
2019-01-23T14:56:59.629Z,66.80
2019-01-23T14:59:26.600Z,66.50
2019-01-23T15:01:53.595Z,66.00
2019-01-23T15:04:20.686Z,66.00
2019-01-23T15:06:47.667Z,65.80
2019-01-23T15:09:14.688Z,65.80
2019-01-23T15:11:41.803Z,66.00
2019-01-23T15:14:08.808Z,66.10
2019-01-23T15:16:35.924Z,66.30
2019-01-23T15:19:02.869Z,66.50
2019-01-23T15:21:29.907Z,66.20
2019-01-23T15:23:56.909Z,66.00
2019-01-23T15:26:23.923Z,66.00
2019-01-23T15:28:50.818Z,65.90
2019-01-23T15:31:18.025Z,65.40
2019-01-23T15:33:45.120Z,65.60
2019-01-23T15:36:12.183Z,66.10
2019-01-23T15:38:39.235Z,66.20
2019-01-23T15:41:06.267Z,66.30
2019-01-23T15:43:33.565Z,66.40
2019-01-23T15:46:00.580Z,66.40
2019-01-23T15:48:27.972Z,66.80
2019-01-23T15:50:55.057Z,67.20
2019-01-23T15:53:22.901Z,66.60
2019-01-23T15:55:50.319Z,66.20
2019-01-23T15:58:20.577Z,66.10
2019-01-23T16:00:47.834Z,66.80
2019-01-23T16:03:14.857Z,66.50
2019-01-23T16:05:42.009Z,66.40
2019-01-23T16:08:09.076Z,66.40
2019-01-23T16:10:36.272Z,66.50
2019-01-23T16:13:03.297Z,66.40
2019-01-23T16:15:30.602Z,66.70
2019-01-23T16:17:57.725Z,66.50
2019-01-23T16:20:25.121Z,66.50
2019-01-23T16:22:52.243Z,67.00
2019-01-23T16:25:19.621Z,67.00
2019-01-23T16:27:47.005Z,66.90
2019-01-23T16:30:23.504Z,66.80
2019-01-23T16:32:50.644Z,66.80
2019-01-23T16:35:17.655Z,66.80
2019-01-23T16:37:44.730Z,66.80
2019-01-23T16:40:11.891Z,66.70
2019-01-23T16:42:39.080Z,66.80
2019-01-23T16:45:07.174Z,66.30
2019-01-23T16:47:34.236Z,66.70
2019-01-23T16:50:01.370Z,66.20
2019-01-23T16:52:28.411Z,66.10
2019-01-23T16:54:55.725Z,66.10
2019-01-23T16:57:23.077Z,66.00
2019-01-23T16:59:51.745Z,65.90
2019-01-23T17:02:18.853Z,66.20
2019-01-23T17:04:46.101Z,66.30
2019-01-23T17:07:13.295Z,65.70
2019-01-23T17:09:40.398Z,66.30
2019-01-23T17:12:09.305Z,65.80
2019-01-23T17:14:36.344Z,66.30
2019-01-23T17:17:03.345Z,66.30
2019-01-23T17:19:30.558Z,66.20
2019-01-23T17:21:58.775Z,66.50
2019-01-23T17:24:25.864Z,66.70
2019-01-23T17:26:52.960Z,66.10
2019-01-23T17:29:20.055Z,66.80
2019-01-23T17:31:47.178Z,66.30
2019-01-23T17:34:14.113Z,65.80
2019-01-23T17:36:41.833Z,66.10
2019-01-23T17:39:08.973Z,65.80
2019-01-23T17:41:36.048Z,65.70
2019-01-23T17:44:03.469Z,65.80
2019-01-23T17:46:30.476Z,65.60
2019-01-23T17:48:57.603Z,65.50
2019-01-23T17:51:24.939Z,65.50
2019-01-23T17:53:52.150Z,65.30
2019-01-23T17:56:19.260Z,65.20
2019-01-23T17:58:46.350Z,65.10
2019-01-23T18:01:13.467Z,65.30
2019-01-23T18:03:40.603Z,65.30
2019-01-23T18:06:08.010Z,65.40
2019-01-23T18:08:35.087Z,65.50
2019-01-23T18:11:02.197Z,65.40
2019-01-23T18:13:29.504Z,65.70
2019-01-23T18:16:03.868Z,66.00
2019-01-23T18:18:30.880Z,66.60
2019-01-23T18:20:58.068Z,65.80
2019-01-23T18:23:25.084Z,65.70
2019-01-23T18:25:52.713Z,65.80
2019-01-23T18:28:20.009Z,65.90
2019-01-23T18:30:57.705Z,66.00
2019-01-23T18:33:31.267Z,66.10
2019-01-23T18:36:37.321Z,66.30
2019-01-23T18:39:14.625Z,66.30
2019-01-23T18:42:28.759Z,66.10
2019-01-23T18:45:13.757Z,66.50
2019-01-23T18:47:55.560Z,66.90
2019-01-23T18:51:01.227Z,66.90
2019-01-23T18:53:28.609Z,66.80
2019-01-23T18:55:55.775Z,67.20
2019-01-23T18:58:22.807Z,67.90
2019-01-23T19:00:49.917Z,67.90
2019-01-23T19:03:16.840Z,67.70
2019-01-23T19:05:44.192Z,67.70
2019-01-23T19:08:12.364Z,67.30
2019-01-23T19:10:39.494Z,67.40
2019-01-23T19:13:07.011Z,67.40
2019-01-23T19:15:34.147Z,67.10
2019-01-23T19:18:01.387Z,67.40
2019-01-23T19:20:28.500Z,67.50
2019-01-23T19:22:56.030Z,67.70
2019-01-23T19:25:23.086Z,67.80
2019-01-23T19:27:50.216Z,67.90
2019-01-23T19:30:19.742Z,67.60
2019-01-23T19:32:46.963Z,67.90
2019-01-23T19:35:14.745Z,67.70
2019-01-23T19:37:41.815Z,68.00
2019-01-23T19:40:09.828Z,67.80
2019-01-23T19:42:36.950Z,67.80
2019-01-23T19:45:07.120Z,67.60
2019-01-23T19:47:34.203Z,67.90
2019-01-23T19:50:01.431Z,68.20
2019-01-23T19:52:31.677Z,68.70
2019-01-23T19:55:02.114Z,68.70
2019-01-23T19:57:29.088Z,68.30
2019-01-23T19:59:56.281Z,68.10
2019-01-23T20:02:23.697Z,68.30
2019-01-23T20:04:51.623Z,68.70
2019-01-23T20:07:18.679Z,68.80
2019-01-23T20:09:45.657Z,68.80
2019-01-23T20:12:15.728Z,68.80
2019-01-23T20:14:42.949Z,68.80
2019-01-23T20:17:09.975Z,68.90
2019-01-23T20:19:37.677Z,68.80
2019-01-23T20:22:05.242Z,68.80
2019-01-23T20:24:33.010Z,68.80
2019-01-23T20:27:00.490Z,69.00
2019-01-23T20:29:28.037Z,68.90
2019-01-23T20:31:55.608Z,68.60
2019-01-23T20:34:23.139Z,68.80
2019-01-23T20:36:51.511Z,68.90
2019-01-23T20:39:19.527Z,68.90
2019-01-23T20:41:47.064Z,68.90
2019-01-23T20:44:17.253Z,68.90
2019-01-23T20:46:46.422Z,68.90
2019-01-23T20:49:16.858Z,68.90
2019-01-23T20:51:45.730Z,68.90
2019-01-23T20:54:13.884Z,68.90
2019-01-23T20:56:41.472Z,68.90
2019-01-23T20:59:08.613Z,68.90
2019-01-23T21:01:35.635Z,68.90
2019-01-23T21:04:02.891Z,68.80
2019-01-23T21:06:30.124Z,68.90
2019-01-23T21:08:57.540Z,68.80
2019-01-23T21:11:24.845Z,68.90
2019-01-23T21:13:52.053Z,69.00
2019-01-23T21:16:19.169Z,68.90
2019-01-23T21:18:46.332Z,68.90
2019-01-23T21:21:13.518Z,68.80
2019-01-23T21:23:40.747Z,68.90
2019-01-23T21:26:08.123Z,69.00
2019-01-23T21:28:35.187Z,68.80
2019-01-23T21:31:02.483Z,68.80
2019-01-23T21:33:29.629Z,69.20
2019-01-23T21:35:56.691Z,69.30
2019-01-23T21:38:23.805Z,69.40
2019-01-23T21:40:50.775Z,69.30
2019-01-23T21:43:17.740Z,69.30
2019-01-23T21:45:44.722Z,69.40
2019-01-23T21:48:11.757Z,70.10
2019-01-23T21:50:38.654Z,70.30
2019-01-23T21:53:05.709Z,68.90
2019-01-23T21:55:32.784Z,68.80
2019-01-23T21:57:59.738Z,68.80
2019-01-23T22:00:48.377Z,69.10
2019-01-23T22:03:15.594Z,68.90
2019-01-23T22:05:42.676Z,69.00
2019-01-23T22:08:09.635Z,69.00
2019-01-23T22:10:36.528Z,69.70
2019-01-23T22:13:04.033Z,70.30
2019-01-23T22:15:31.009Z,69.70
2019-01-23T22:17:57.906Z,69.80
2019-01-23T22:20:24.882Z,69.90
2019-01-23T22:22:52.014Z,69.70
2019-01-23T22:25:21.359Z,69.30
2019-01-23T22:27:58.420Z,69.30
2019-01-23T22:30:27.575Z,69.50
2019-01-23T22:32:54.610Z,69.60
2019-01-23T22:35:21.893Z,69.30
2019-01-23T22:37:49.271Z,69.70
2019-01-23T22:40:17.643Z,69.60
2019-01-23T22:42:44.704Z,68.90
2019-01-23T22:45:13.832Z,68.90
2019-01-23T22:47:40.797Z,68.90
2019-01-23T22:50:11.136Z,68.80
2019-01-23T22:52:38.805Z,68.80
2019-01-23T22:55:09.280Z,68.80
2019-01-23T22:57:36.346Z,68.90
2019-01-23T23:00:11.512Z,68.80
2019-01-23T23:02:38.590Z,68.80
2019-01-23T23:05:05.870Z,69.70
2019-01-23T23:07:32.782Z,69.10
2019-01-23T23:09:59.761Z,68.90
2019-01-23T23:12:26.852Z,69.10
2019-01-23T23:14:53.757Z,69.00
2019-01-23T23:17:20.815Z,69.00
2019-01-23T23:19:47.932Z,69.30
2019-01-23T23:22:15.790Z,69.40
2019-01-23T23:24:42.744Z,69.50
2019-01-23T23:27:09.710Z,68.90
2019-01-23T23:29:36.613Z,68.80
2019-01-23T23:32:04.132Z,68.90
2019-01-23T23:34:31.156Z,68.90
2019-01-23T23:36:58.047Z,68.80
2019-01-23T23:39:24.988Z,69.60
2019-01-23T23:41:51.999Z,68.90
2019-01-23T23:44:18.987Z,69.00
2019-01-23T23:46:46.051Z,68.70
2019-01-23T23:49:13.013Z,68.90
2019-01-23T23:51:39.968Z,68.50
2019-01-23T23:54:06.966Z,68.20
2019-01-23T23:56:34.024Z,68.10
2019-01-23T23:59:01.096Z,68.40
